Time;durP1;ratioP1;P1;durP2;ratioP2;P2;SDS_P1;SDS_P2;PMS_P1;PMS_P2;Temp;Humidity;BMP_temperature;BMP_pressure;BME280_temperature;BME280_humidity;BME280_pressure;Samples;Min_cycle;Max_cycle;Signal;HPM_P1;HPM_P2
2022/12/15 00:40:03;;;;;;;104.40;73.30;;;;;;;-3.39;72.91;99135.40;108461;1280;23068;-75
2022/12/15 00:42:32;;;;;;;96.40;71.50;;;;;;;-3.36;72.89;99138.63;108498;1280;22090;-74
2022/12/15 00:45:01;;;;;;;106.50;74.50;;;;;;;-3.32;72.86;99135.73;108123;1280;21938;-76
2022/12/15 00:47:32;;;;;;;101.30;73.20;;;;;;;-3.29;72.75;99138.80;108186;1275;22717;-75
2022/12/15 01:20:43;;;;;;;111.70;77.30;;;;;;;-3.23;72.28;99163.13;108252;1281;24342;-74
2022/12/15 01:23:11;;;;;;;119.80;78.60;;;;;;;-3.24;72.17;99160.06;108271;1278;21933;-76
2022/12/15 01:25:40;;;;;;;108.40;75.50;;;;;;;-3.26;72.22;99157.67;108314;1281;21945;-75
2022/12/15 01:28:09;;;;;;;113.10;78.60;;;;;;;-3.25;72.27;99158.70;108324;1280;22487;-75
2022/12/15 01:30:38;;;;;;;114.10;78.00;;;;;;;-3.23;72.38;99161.42;108253;1281;21943;-74
2022/12/15 01:33:06;;;;;;;121.70;82.50;;;;;;;-3.20;72.43;99164.48;108244;1281;23113;-75
2022/12/15 01:35:35;;;;;;;116.60;82.20;;;;;;;-3.18;72.39;99164.98;108438;1280;23797;-75
2022/12/15 01:38:04;;;;;;;125.00;86.20;;;;;;;-3.16;72.27;99166.68;108153;1281;21936;-74
2022/12/15 01:40:49;;;;;;;118.60;85.20;;;;;;;-3.18;72.20;99162.27;108252;1281;21934;-74
2022/12/15 01:43:22;;;;;;;115.80;81.80;;;;;;;-3.18;72.24;99163.63;108260;1280;23873;-75
2022/12/15 01:46:00;;;;;;;118.10;83.40;;;;;;;-3.19;72.14;99167.20;108468;1280;23679;-75
2022/12/15 01:48:58;;;;;;;115.30;82.80;;;;;;;-3.22;72.06;99169.75;108250;1280;23071;-75
2022/12/15 01:51:38;;;;;;;120.70;84.80;;;;;;;-3.28;72.04;99169.92;108424;1280;23047;-76
2022/12/15 01:54:41;;;;;;;114.30;80.20;;;;;;;-3.30;72.19;99167.73;108487;1280;23669;-75
2022/12/15 01:57:17;;;;;;;120.30;85.70;;;;;;;-3.34;72.14;99172.16;107769;1289;23606;-75
2022/12/15 01:59:51;;;;;;;114.80;82.70;;;;;;;-3.35;72.30;99173.85;107653;1289;23640;-75
2022/12/15 02:02:25;;;;;;;112.80;82.00;;;;;;;-3.33;72.28;99175.20;107747;1288;21978;-75
2022/12/15 02:04:58;;;;;;;117.60;84.50;;;;;;;-3.32;72.32;99177.77;107665;1289;24297;-75
2022/12/15 02:07:27;;;;;;;119.50;82.50;;;;;;;-3.33;72.35;99179.11;107853;1289;23064;-76
2022/12/15 02:10:00;;;;;;;121.00;85.20;;;;;;;-3.36;72.24;99190.17;107738;1288;24310;-76
2022/12/15 02:12:53;;;;;;;123.80;87.20;;;;;;;-3.40;72.23;99194.95;107693;1289;21939;-75
2022/12/15 02:15:48;;;;;;;128.70;82.60;;;;;;;-3.41;72.35;99196.13;107685;1289;22890;-74
2022/12/15 02:19:03;;;;;;;118.30;83.30;;;;;;;-3.42;72.38;99193.92;107720;1289;22234;-75
2022/12/15 02:21:58;;;;;;;115.80;82.50;;;;;;;-3.44;72.32;99198.34;107623;1289;23134;-75
2022/12/15 02:25:08;;;;;;;116.70;82.70;;;;;;;-3.44;72.43;99202.09;107754;1289;22405;-76
2022/12/15 02:27:48;;;;;;;115.20;82.70;;;;;;;-3.43;72.49;99203.79;107412;1293;23071;-75
2022/12/15 02:33:57;;;;;;;128.70;91.30;;;;;;;-3.38;72.49;99213.65;107544;1286;21974;-75
2022/12/15 02:36:36;;;;;;;115.70;85.90;;;;;;;-3.34;72.52;99217.05;107826;1286;23730;-75
2022/12/15 02:39:05;;;;;;;126.50;89.90;;;;;;;-3.33;72.50;99219.61;107791;1284;21946;-76
2022/12/15 02:41:38;;;;;;;122.40;88.10;;;;;;;-3.31;72.39;99221.15;107983;1286;22588;-75
2022/12/15 02:44:37;;;;;;;122.60;89.30;;;;;;;-3.31;72.31;99232.21;107802;1286;21942;-74
2022/12/15 02:47:33;;;;;;;128.10;92.30;;;;;;;-3.34;72.32;99232.38;107943;1286;23804;-74
2022/12/15 02:50:34;;;;;;;127.70;91.90;;;;;;;-3.33;72.30;99233.22;108045;1286;21942;-74
2022/12/15 02:53:22;;;;;;;129.20;90.20;;;;;;;-3.32;72.31;99231.01;108071;1286;23687;-75
2022/12/15 02:56:03;;;;;;;129.30;91.00;;;;;;;-3.29;72.35;99228.80;107994;1286;21950;-75
2022/12/15 02:58:43;;;;;;;122.70;87.50;;;;;;;-3.27;72.39;99230.16;107968;1286;23060;-75
2022/12/15 03:01:57;;;;;;;126.60;89.10;;;;;;;-3.24;72.41;99229.15;107966;1285;21955;-75
2022/12/15 03:04:27;;;;;;;128.00;87.80;;;;;;;-3.24;72.32;99229.99;107356;1289;23822;-75
2022/12/15 03:06:59;;;;;;;118.60;86.00;;;;;;;-3.26;72.12;99234.41;107437;1289;22725;-75
2022/12/15 03:09:31;;;;;;;117.40;83.60;;;;;;;-3.25;72.10;99242.77;107691;1289;22047;-75
2022/12/15 03:12:00;;;;;;;115.70;81.90;;;;;;;-3.23;72.10;99252.29;107679;1289;23727;-74
2022/12/15 03:14:29;;;;;;;117.40;83.50;;;;;;;-3.24;72.15;99256.02;107679;1288;22575;-74
2022/12/15 03:16:58;;;;;;;122.40;85.60;;;;;;;-3.23;72.12;99254.84;107701;1287;23737;-76
2022/12/15 03:19:27;;;;;;;117.20;83.00;;;;;;;-3.22;71.99;99257.23;107695;1289;22904;-74
2022/12/15 03:21:55;;;;;;;118.10;84.60;;;;;;;-3.23;71.94;99257.89;107715;1289;21956;-75
2022/12/15 03:24:24;;;;;;;120.00;87.90;;;;;;;-3.22;71.91;99263.34;107656;1289;21950;-77
2022/12/15 03:26:53;;;;;;;120.50;83.60;;;;;;;-3.21;72.00;99267.77;107656;1289;23044;-75
2022/12/15 03:29:22;;;;;;;122.10;88.10;;;;;;;-3.21;71.83;99270.67;107633;1287;21966;-75
2022/12/15 03:31:50;;;;;;;122.80;85.40;;;;;;;-3.23;71.89;99271.00;107687;1289;22023;-74
2022/12/15 03:34:20;;;;;;;122.70;85.10;;;;;;;-3.21;71.86;99270.83;107654;1289;21946;-75
2022/12/15 03:36:48;;;;;;;126.50;87.70;;;;;;;-3.20;71.97;99273.72;107414;1289;24411;-74
2022/12/15 03:39:17;;;;;;;119.00;87.10;;;;;;;-3.20;71.87;99278.15;107485;1289;23090;-76
2022/12/15 03:41:46;;;;;;;125.90;87.80;;;;;;;-3.22;71.73;99282.39;108420;1280;23595;-76
2022/12/15 03:44:15;;;;;;;127.40;87.30;;;;;;;-3.22;71.83;99286.15;108454;1280;21938;-75
2022/12/15 03:46:43;;;;;;;123.60;85.70;;;;;;;-3.20;71.96;99288.70;108495;1280;21961;-75
2022/12/15 03:49:12;;;;;;;134.90;90.30;;;;;;;-3.19;71.84;99290.05;108197;1281;21945;-74
2022/12/15 03:51:41;;;;;;;123.50;89.50;;;;;;;-3.20;71.79;99286.14;108449;1280;23784;-74
2022/12/15 03:54:12;;;;;;;122.00;88.60;;;;;;;-3.23;71.71;99288.70;108497;1278;21955;-75
2022/12/15 03:56:41;;;;;;;133.80;89.20;;;;;;;-3.25;71.65;99289.39;108331;1280;23049;-74
2022/12/15 03:59:10;;;;;;;124.80;87.80;;;;;;;-3.24;71.75;99295.51;108455;1280;21939;-75
2022/12/15 04:01:46;;;;;;;129.90;92.50;;;;;;;-3.22;71.82;99297.04;108204;1281;23766;-74
2022/12/15 04:04:15;;;;;;;129.80;92.00;;;;;;;-3.20;71.77;99296.19;108493;1280;22027;-75
2022/12/15 04:06:44;;;;;;;128.70;90.80;;;;;;;-3.20;71.71;99300.80;108437;1280;21954;-76
2022/12/15 04:09:12;;;;;;;131.20;91.80;;;;;;;-3.20;71.74;99301.80;108169;1283;22923;-75
2022/12/15 04:11:41;;;;;;;134.50;94.80;;;;;;;-3.19;71.78;99306.05;108432;1281;22139;-76
2022/12/15 04:14:10;;;;;;;129.70;92.50;;;;;;;-3.18;71.77;99310.14;108371;1280;22007;-76
2022/12/15 04:16:39;;;;;;;125.70;90.30;;;;;;;-3.16;71.77;99308.95;108447;1280;21944;-76
2022/12/15 04:21:56;;;;;;;129.20;90.60;;;;;;;-3.15;71.74;99314.58;108282;1280;23094;-77
2022/12/15 05:31:54;;;;;;;131.80;95.20;;;;;;;-2.97;72.01;99405.83;108030;1286;22012;-76
2022/12/15 05:34:29;;;;;;;121.80;84.30;;;;;;;-2.96;72.07;99409.92;108290;1279;22983;-76
2022/12/15 05:37:00;;;;;;;123.20;84.90;;;;;;;-2.92;72.06;99411.46;108176;1283;23067;-77
2022/12/15 05:39:29;;;;;;;118.20;85.80;;;;;;;-2.89;72.09;99415.91;108428;1283;21945;-77
2022/12/15 05:41:58;;;;;;;121.50;88.10;;;;;;;-2.86;72.15;99419.30;108254;1283;21938;-77
2022/12/15 05:44:28;;;;;;;123.30;87.70;;;;;;;-2.84;71.92;99427.48;108510;1283;21932;-76
2022/12/15 05:46:57;;;;;;;138.10;103.80;;;;;;;-2.83;71.85;99432.59;108451;1284;21957;-76
2022/12/15 05:49:25;;;;;;;146.70;112.70;;;;;;;-2.83;71.92;99435.84;108377;1283;21940;-76
2022/12/15 05:51:56;;;;;;;132.40;91.80;;;;;;;-2.82;71.87;99442.99;108324;1283;21957;-77
2022/12/15 05:54:24;;;;;;;122.70;89.80;;;;;;;-2.81;71.85;99447.58;108463;1283;21935;-76
2022/12/15 05:56:53;;;;;;;131.60;94.40;;;;;;;-2.80;71.95;99448.94;108492;1283;21937;-77
2022/12/15 05:59:22;;;;;;;131.20;93.60;;;;;;;-2.77;72.00;99454.91;108532;1281;22086;-78
2022/12/15 06:01:51;;;;;;;130.70;93.10;;;;;;;-2.75;71.89;99461.05;108434;1283;21934;-77
2022/12/15 06:04:19;;;;;;;132.60;94.70;;;;;;;-2.73;71.92;99469.05;108490;1283;23049;-76
2022/12/15 06:06:48;;;;;;;131.40;92.80;;;;;;;-2.71;71.91;99473.15;108441;1283;21957;-76
2022/12/15 06:09:17;;;;;;;135.50;93.00;;;;;;;-2.70;71.91;99478.76;108194;1283;23674;-77
2022/12/15 06:11:46;;;;;;;138.10;95.60;;;;;;;-2.68;72.03;99480.46;108356;1284;21943;-75
2022/12/15 06:14:15;;;;;;;137.70;93.90;;;;;;;-2.67;71.92;99485.92;108478;1280;21944;-74
2022/12/15 06:16:44;;;;;;;133.80;94.10;;;;;;;-2.67;71.74;99494.44;108387;1282;21943;-75
2022/12/15 06:19:19;;;;;;;124.10;90.70;;;;;;;-2.70;71.78;99502.44;108266;1285;21939;-75
2022/12/15 06:21:50;;;;;;;128.10;91.90;;;;;;;-2.72;71.76;99508.39;108250;1284;22559;-75
2022/12/15 06:24:19;;;;;;;133.40;92.00;;;;;;;-2.73;71.81;99511.28;108525;1266;23101;-76
2022/12/15 06:26:48;;;;;;;130.20;93.10;;;;;;;-2.74;71.81;99516.90;108304;1280;21925;-76
2022/12/15 06:29:17;;;;;;;124.90;91.80;;;;;;;-2.76;71.85;99520.48;108319;1280;21945;-77
2022/12/15 06:31:46;;;;;;;132.70;94.10;;;;;;;-2.76;71.90;99523.55;108252;1284;21913;-78
2022/12/15 06:34:16;;;;;;;134.70;96.30;;;;;;;-2.75;71.89;99528.83;108152;1284;21932;-78
2022/12/15 06:36:47;;;;;;;136.20;96.40;;;;;;;-2.75;71.96;99533.59;108124;1283;21949;-76
2022/12/15 06:39:16;;;;;;;134.20;95.80;;;;;;;-2.75;72.03;99534.10;108443;1281;24065;-76
2022/12/15 06:41:45;;;;;;;135.00;95.00;;;;;;;-2.73;71.95;99530.70;108474;1280;23154;-76
2022/12/15 06:44:15;;;;;;;129.60;96.30;;;;;;;-2.72;71.90;99533.27;108480;1281;24329;-75
2022/12/15 06:46:45;;;;;;;139.50;95.80;;;;;;;-2.71;72.02;99537.17;108482;1284;23065;-76
2022/12/15 06:49:14;;;;;;;140.40;95.80;;;;;;;-2.70;71.93;99538.73;108469;1283;23798;-75
2022/12/15 06:51:43;;;;;;;132.80;97.60;;;;;;;-2.71;71.93;99544.00;108449;1284;21933;-75
2022/12/15 06:54:12;;;;;;;136.00;97.90;;;;;;;-2.69;71.97;99548.09;108150;1276;22727;-77
2022/12/15 06:56:41;;;;;;;133.10;98.00;;;;;;;-2.68;71.91;99555.07;108459;1284;23692;-76
2022/12/15 06:59:11;;;;;;;134.50;96.70;;;;;;;-2.69;72.04;99561.88;108420;1283;21969;-77
2022/12/15 07:01:40;;;;;;;142.40;101.20;;;;;;;-2.71;71.90;99569.02;108520;1283;22691;-76
2022/12/15 07:04:10;;;;;;;142.70;104.30;;;;;;;-2.71;71.91;99572.44;108199;1284;23068;-76
2022/12/15 07:06:39;;;;;;;155.50;107.70;;;;;;;-2.70;71.94;99574.14;108415;1280;23014;-75
2022/12/15 07:09:12;;;;;;;153.00;107.70;;;;;;;-2.70;71.95;99573.46;108454;1282;24930;-75
2022/12/15 07:11:41;;;;;;;158.70;108.60;;;;;;;-2.70;71.95;99579.25;108341;1279;21939;-76
2022/12/15 07:14:10;;;;;;;150.30;106.50;;;;;;;-2.68;71.97;99586.23;108287;1283;21935;-76
2022/12/15 07:16:39;;;;;;;147.50;106.20;;;;;;;-2.67;72.02;99590.86;108272;1281;22015;-76
2022/12/15 07:19:13;;;;;;;139.10;100.80;;;;;;;-2.67;71.92;99593.91;108583;1281;21943;-76
2022/12/15 07:21:42;;;;;;;141.10;99.70;;;;;;;-2.66;71.93;99596.14;108424;1283;21965;-77
2022/12/15 07:24:11;;;;;;;143.70;103.60;;;;;;;-2.66;71.91;99597.15;108468;1277;21940;-77
2022/12/15 07:26:41;;;;;;;136.50;98.00;;;;;;;-2.68;71.79;99603.11;108416;1282;23716;-76
2022/12/15 07:29:10;;;;;;;143.20;100.50;;;;;;;-2.68;71.90;99610.60;108203;1283;23817;-77
2022/12/15 07:31:39;;;;;;;147.30;99.90;;;;;;;-2.66;71.92;99617.25;108166;1280;21930;-77
2022/12/15 07:34:08;;;;;;;146.20;99.80;;;;;;;-2.63;71.97;99623.58;108227;1269;23679;-76
2022/12/15 07:36:37;;;;;;;151.90;104.70;;;;;;;-2.62;71.92;99622.20;108436;1280;24925;-76
2022/12/15 07:39:06;;;;;;;150.70;104.60;;;;;;;-2.62;71.78;99619.65;108241;1282;21929;-76
2022/12/15 07:41:37;;;;;;;151.50;105.80;;;;;;;-2.61;71.85;99620.17;108354;1282;23679;-77
2022/12/15 07:44:06;;;;;;;149.40;109.50;;;;;;;-2.59;71.91;99624.95;108511;1279;21927;-76
2022/12/15 07:46:35;;;;;;;155.90;108.60;;;;;;;-2.57;71.86;99629.90;108416;1280;22018;-81
2022/12/15 07:49:04;;;;;;;155.80;110.20;;;;;;;-2.55;71.93;99630.59;108633;1279;21920;-79
2022/12/15 07:51:33;;;;;;;138.40;104.10;;;;;;;-2.50;71.94;99630.95;108308;1282;21941;-80
2022/12/15 07:54:02;;;;;;;150.80;112.40;;;;;;;-2.46;71.96;99635.90;108408;1282;23634;-84
2022/12/15 07:56:31;;;;;;;142.40;103.80;;;;;;;-2.44;71.90;99638.63;108465;1282;22011;-80
2022/12/15 07:59:07;;;;;;;132.30;101.50;;;;;;;-2.39;71.91;99639.16;108537;1281;21942;-79
2022/12/15 08:01:36;;;;;;;133.70;99.20;;;;;;;-2.36;71.81;99645.48;108422;1280;21966;-79
2022/12/15 08:04:05;;;;;;;140.80;100.40;;;;;;;-2.33;71.79;99648.38;108484;1282;22540;-79
2022/12/15 08:06:34;;;;;;;141.60;104.20;;;;;;;-2.29;71.79;99653.84;108283;1283;21965;-79
2022/12/15 08:09:02;;;;;;;136.60;100.70;;;;;;;-2.27;71.68;99656.41;108342;1282;21933;-80
2022/12/15 08:11:34;;;;;;;137.80;100.90;;;;;;;-2.26;71.57;99661.70;108460;1281;21907;-78
2022/12/15 08:14:02;;;;;;;146.90;107.90;;;;;;;-2.26;71.43;99663.91;108495;1278;21942;-77
2022/12/15 08:16:37;;;;;;;145.80;109.20;;;;;;;-2.23;71.46;99668.87;108217;1281;21932;-77
2022/12/15 08:19:10;;;;;;;148.80;109.90;;;;;;;-2.21;71.44;99666.48;108364;1280;21934;-79
2022/12/15 08:21:41;;;;;;;147.30;109.10;;;;;;;-2.16;71.49;99668.89;108321;1281;24294;-79
2022/12/15 08:24:11;;;;;;;143.50;109.70;;;;;;;-2.12;71.30;99668.89;108173;1280;21941;-78
2022/12/15 08:26:42;;;;;;;136.00;99.40;;;;;;;-2.10;71.19;99669.92;108357;1280;21950;-80
2022/12/15 08:29:13;;;;;;;137.40;100.20;;;;;;;-2.06;71.26;99673.68;108263;1280;22354;-80
2022/12/15 08:32:02;;;;;;;138.60;102.00;;;;;;;-2.04;71.14;99675.23;108355;1281;21937;-79
2022/12/15 08:34:31;;;;;;;127.30;97.80;;;;;;;-2.00;71.02;99673.88;107155;1283;1368577;-79
2022/12/15 08:37:00;;;;;;;135.60;102.60;;;;;;;-2.00;70.78;99678.30;108196;1277;21954;-79
2022/12/15 08:39:30;;;;;;;131.70;101.70;;;;;;;-2.01;70.86;99682.74;107761;1288;21954;-80
2022/12/15 08:41:59;;;;;;;129.80;100.60;;;;;;;-1.96;70.97;99684.98;107908;1289;21999;-79
2022/12/15 08:44:28;;;;;;;132.00;95.10;;;;;;;-1.92;70.76;99690.60;108060;1289;23635;-80
2022/12/15 08:46:57;;;;;;;128.00;94.60;;;;;;;-1.92;70.77;99694.20;108041;1286;23745;-80
2022/12/15 08:49:26;;;;;;;134.40;99.60;;;;;;;-1.87;70.84;99695.56;108041;1286;22193;-80
2022/12/15 08:51:55;;;;;;;129.70;98.30;;;;;;;-1.82;70.70;99702.91;108045;1285;23165;-80
2022/12/15 08:54:24;;;;;;;124.80;93.90;;;;;;;-1.77;70.60;99711.95;108137;1280;23112;-81
2022/12/15 08:56:54;;;;;;;124.80;94.40;;;;;;;-1.76;70.37;99716.40;107966;1283;21961;-80
2022/12/15 08:59:23;;;;;;;129.20;95.70;;;;;;;-1.75;70.32;99718.11;108573;1270;21933;-80
2022/12/15 09:01:52;;;;;;;142.40;101.60;;;;;;;-1.75;70.21;99722.20;108343;1281;23771;-83
2022/12/15 09:04:22;;;;;;;128.50;95.00;;;;;;;-1.80;69.76;99725.10;108378;1282;22280;-81
2022/12/15 09:06:52;;;;;;;128.30;97.10;;;;;;;-1.90;69.38;99725.41;108344;1278;22498;-81
2022/12/15 09:09:21;;;;;;;138.30;102.90;;;;;;;-1.97;69.55;99727.95;108459;1280;24184;-80
2022/12/15 09:11:50;;;;;;;139.40;101.40;;;;;;;-1.93;70.03;99723.86;108257;1283;22080;-82
2022/12/15 09:14:19;;;;;;;135.60;100.50;;;;;;;-1.86;70.02;99729.50;108268;1279;21933;-79
2022/12/15 09:21:36;;;;;;;139.80;96.60;;;;;;;-1.77;70.08;99736.52;108409;1269;21937;-79
2022/12/15 09:24:06;;;;;;;133.50;99.10;;;;;;;-1.73;70.01;99742.85;108417;1280;21925;-81
2022/12/15 09:26:35;;;;;;;134.40;99.80;;;;;;;-1.69;69.57;99746.61;108295;1281;22196;-79
2022/12/15 09:29:04;;;;;;;131.90;99.70;;;;;;;-1.70;69.38;99744.39;108394;1265;22188;-81
2022/12/15 09:31:36;;;;;;;129.80;100.90;;;;;;;-1.65;69.49;99749.17;108277;1281;23688;-84
2022/12/15 09:34:06;;;;;;;122.30;93.90;;;;;;;-1.61;69.35;99748.34;108507;1280;21948;-79
2022/12/15 09:36:35;;;;;;;130.90;98.90;;;;;;;-1.60;69.21;99748.33;108468;1280;23730;-80
2022/12/15 09:39:04;;;;;;;127.20;93.60;;;;;;;-1.56;69.07;99752.27;108262;1280;21968;-80
2022/12/15 09:41:35;;;;;;;122.40;95.20;;;;;;;-1.51;69.05;99758.94;108361;1281;21948;-80
2022/12/15 09:44:16;;;;;;;126.20;95.50;;;;;;;-1.50;68.99;99762.02;108223;1281;21937;-80
2022/12/15 09:47:19;;;;;;;128.70;97.50;;;;;;;-1.45;69.06;99763.71;108523;1278;22748;-80
2022/12/15 09:49:56;;;;;;;127.70;96.50;;;;;;;-1.38;69.15;99766.80;108554;1275;21976;-78
2022/12/15 09:52:55;;;;;;;133.10;97.80;;;;;;;-1.31;69.06;99769.89;108364;1281;21993;-79
2022/12/15 09:55:32;;;;;;;136.30;101.50;;;;;;;-1.30;68.76;99769.38;108439;1280;21941;-81
2022/12/15 09:58:31;;;;;;;135.80;102.70;;;;;;;-1.30;68.37;99768.02;108376;1279;23046;-79
2022/12/15 10:01:25;;;;;;;150.30;121.80;;;;;;;-1.30;68.56;99769.71;108330;1278;23615;-80
2022/12/15 10:04:11;;;;;;;137.90;107.00;;;;;;;-1.23;68.65;99771.10;108197;1283;21923;-80
2022/12/15 10:07:11;;;;;;;127.20;94.10;;;;;;;-1.18;68.33;99771.42;108404;1280;21973;-81
2022/12/15 10:09:41;;;;;;;117.90;88.50;;;;;;;-1.21;67.88;99774.16;108261;1280;23048;-80
2022/12/15 10:12:41;;;;;;;115.30;88.40;;;;;;;-1.23;67.74;99784.41;108488;1278;22008;-83
2022/12/15 10:15:28;;;;;;;118.60;91.80;;;;;;;-1.21;67.76;99782.52;108121;1286;21957;-80
2022/12/15 10:18:14;;;;;;;123.60;92.60;;;;;;;-1.14;67.85;99778.42;107763;1286;21958;-79
2022/12/15 10:20:44;;;;;;;137.60;99.70;;;;;;;-1.06;67.87;99772.64;107769;1286;22001;-80
2022/12/15 10:23:17;;;;;;;138.10;99.70;;;;;;;-0.98;67.63;99776.39;107336;1293;21965;-82
2022/12/15 10:25:54;;;;;;;139.70;101.90;;;;;;;-0.91;67.62;99776.73;107360;1292;23641;-79
2022/12/15 10:29:05;;;;;;;140.70;102.50;;;;;;;-0.85;67.35;99779.46;107474;1292;21950;-82
2022/12/15 10:31:51;;;;;;;138.90;102.40;;;;;;;-0.86;67.07;99788.52;106634;1300;22720;-83
2022/12/15 10:34:32;;;;;;;144.00;105.50;;;;;;;-0.86;66.82;99790.73;106811;1298;23082;-79
2022/12/15 10:37:02;;;;;;;145.00;105.10;;;;;;;-0.85;66.78;99791.60;106936;1300;22055;-82
2022/12/15 10:39:38;;;;;;;141.70;107.00;;;;;;;-0.83;66.78;99792.80;106763;1300;23093;-80
2022/12/15 10:42:23;;;;;;;140.80;107.30;;;;;;;-0.81;66.54;99792.80;107135;1294;21947;-81
2022/12/15 10:44:56;;;;;;;137.30;102.90;;;;;;;-0.81;66.38;99790.57;107286;1295;21966;-79
2022/12/15 10:47:32;;;;;;;126.20;96.50;;;;;;;-0.81;66.06;99788.86;107339;1294;23730;-81
2022/12/15 10:50:34;;;;;;;138.70;102.30;;;;;;;-0.82;66.16;99789.36;107397;1294;21963;-81
2022/12/15 10:53:08;;;;;;;136.40;104.00;;;;;;;-0.80;66.22;99789.20;107418;1292;22377;-80
2022/12/15 10:55:42;;;;;;;129.40;102.90;;;;;;;-0.80;66.08;99784.91;107546;1292;21955;-81
2022/12/15 10:58:22;;;;;;;139.30;106.10;;;;;;;-0.77;66.11;99787.48;107507;1292;22013;-80
2022/12/15 11:01:18;;;;;;;132.60;102.60;;;;;;;-0.72;66.28;99787.98;107315;1292;23134;-80
2022/12/15 11:03:50;;;;;;;129.10;101.70;;;;;;;-0.65;66.35;99788.85;107679;1292;23690;-82
2022/12/15 11:06:27;;;;;;;133.90;102.80;;;;;;;-0.58;66.37;99791.40;107638;1292;21952;-81
2022/12/15 11:09:35;;;;;;;130.50;105.30;;;;;;;-0.51;66.35;99801.30;107711;1286;22043;-80
2022/12/15 11:15:50;;;;;;;148.40;105.10;;;;;;;-0.52;65.95;99818.58;107993;1286;21952;-78
2022/12/15 11:18:46;;;;;;;139.40;106.40;;;;;;;-0.50;65.96;99818.40;107947;1286;21956;-80
2022/12/15 11:21:23;;;;;;;137.90;104.50;;;;;;;-0.49;65.93;99814.98;107751;1286;23084;-81
2022/12/15 11:23:58;;;;;;;128.00;99.70;;;;;;;-0.50;65.57;99820.11;107849;1286;23113;-80
2022/12/15 11:27:05;;;;;;;124.00;98.80;;;;;;;-0.64;65.15;99821.99;107976;1283;24362;-78
2022/12/15 11:29:58;;;;;;;133.80;101.00;;;;;;;-0.73;65.50;99830.20;108234;1280;22088;-80
2022/12/15 11:32:37;;;;;;;134.00;101.10;;;;;;;-0.74;65.69;99831.23;108351;1275;23710;-83
2022/12/15 11:35:17;;;;;;;123.60;98.00;;;;;;;-0.77;65.65;99834.13;108172;1281;21967;-78
2022/12/15 11:37:59;;;;;;;129.80;96.80;;;;;;;-0.82;65.57;99835.84;108334;1280;21960;-78
2022/12/15 11:40:42;;;;;;;122.40;97.30;;;;;;;-0.84;65.76;99841.81;108491;1280;21719;-79
2022/12/15 11:43:31;;;;;;;123.40;99.60;;;;;;;-0.83;65.81;99848.48;108223;1280;23615;-80
2022/12/15 11:46:21;;;;;;;129.20;100.00;;;;;;;-0.81;65.98;99855.83;108203;1280;23633;-78
2022/12/15 11:49:45;;;;;;;118.00;91.80;;;;;;;-0.77;66.17;99861.64;108200;1280;23727;-78
2022/12/15 11:52:38;;;;;;;117.90;91.20;;;;;;;-0.78;65.96;99866.08;108412;1280;21968;-82
2022/12/15 11:55:43;;;;;;;121.70;93.60;;;;;;;-0.81;66.00;99870.19;108361;1280;21950;-78
2022/12/15 11:58:37;;;;;;;115.90;91.10;;;;;;;-0.76;66.33;99866.25;109026;1277;23688;-85
2022/12/15 12:01:41;;;;;;;128.90;102.40;;;;;;;-0.73;66.34;99864.72;108490;1283;21943;-84
2022/12/15 12:04:28;;;;;;;119.60;93.10;;;;;;;-0.67;66.33;99866.60;108546;1280;21950;-80
2022/12/15 12:07:28;;;;;;;114.50;88.10;;;;;;;-0.63;66.26;99867.11;108599;1280;23051;-81
2022/12/15 12:10:23;;;;;;;83.90;65.80;;;;;;;-0.61;66.06;99865.40;108520;1278;21960;-81
2022/12/15 12:13:10;;;;;;;81.90;68.80;;;;;;;-0.64;65.79;99860.46;108518;1280;21933;-81
2022/12/15 12:16:08;;;;;;;88.90;69.90;;;;;;;-0.66;65.85;99859.25;108540;1280;21939;-80
2022/12/15 12:18:45;;;;;;;87.10;70.90;;;;;;;-0.64;65.99;99860.45;108443;1279;21967;-82
2022/12/15 12:21:33;;;;;;;98.40;87.30;;;;;;;-0.62;65.92;99864.55;108388;1280;22005;-81
2022/12/15 12:24:13;;;;;;;71.00;57.20;;;;;;;-0.64;65.74;99863.02;108350;1279;21932;-81
2022/12/15 12:27:00;;;;;;;63.40;52.40;;;;;;;-0.67;65.57;99860.45;108222;1280;22367;-81
2022/12/15 12:29:40;;;;;;;56.00;45.60;;;;;;;-0.75;65.34;99859.42;108361;1278;21941;-81
2022/12/15 12:32:46;;;;;;;55.40;44.70;;;;;;;-0.81;65.14;99861.30;108503;1276;22719;-82
2022/12/15 12:35:45;;;;;;;76.10;57.70;;;;;;;-0.91;64.97;99867.10;107901;1286;21947;-80
2022/12/15 12:38:23;;;;;;;63.60;52.20;;;;;;;-1.00;64.73;99873.08;107870;1287;23061;-82
2022/12/15 12:41:29;;;;;;;65.10;53.60;;;;;;;-1.05;64.89;99874.09;107735;1287;23618;-81
2022/12/15 12:44:31;;;;;;;69.10;54.80;;;;;;;-1.06;64.96;99876.47;107895;1287;21949;-81
2022/12/15 12:47:10;;;;;;;72.30;57.60;;;;;;;-1.03;65.10;99880.75;108123;1284;21948;-82
2022/12/15 12:50:02;;;;;;;61.30;49.60;;;;;;;-0.99;64.99;99887.75;107861;1284;21994;-82
2022/12/15 12:52:36;;;;;;;66.40;51.10;;;;;;;-0.98;64.90;99889.46;108093;1286;21949;-81
2022/12/15 12:55:10;;;;;;;56.40;46.30;;;;;;;-0.96;64.73;99889.81;107886;1286;22008;-81
2022/12/15 12:57:45;;;;;;;55.30;47.50;;;;;;;-0.97;64.65;99885.02;107752;1282;22000;-82
2022/12/15 13:00:26;;;;;;;61.00;50.20;;;;;;;-0.96;64.61;99882.63;107379;1292;21969;-81
2022/12/15 13:03:16;;;;;;;66.90;57.90;;;;;;;-0.94;64.57;99879.56;107664;1291;22011;-82
2022/12/15 13:05:49;;;;;;;56.30;46.30;;;;;;;-0.93;64.48;99882.29;107738;1292;21961;-82
2022/12/15 13:08:44;;;;;;;57.40;47.40;;;;;;;-0.95;64.44;99887.41;107496;1292;22179;-81
2022/12/15 13:11:55;;;;;;;50.40;41.60;;;;;;;-1.01;64.22;99881.60;107464;1292;21924;-81
2022/12/15 13:14:24;;;;;;;60.10;47.70;;;;;;;-1.07;64.12;99877.66;107663;1284;22034;-80
2022/12/15 13:17:24;;;;;;;55.80;46.90;;;;;;;-1.08;64.14;99874.25;108213;1285;23941;-80
2022/12/15 13:19:55;;;;;;;61.10;46.50;;;;;;;-1.10;64.17;99875.43;107974;1286;23680;-82
2022/12/15 13:22:31;;;;;;;51.20;45.20;;;;;;;-1.11;64.03;99878.01;108385;1285;22315;-82
2022/12/15 13:25:21;;;;;;;56.20;46.00;;;;;;;-1.12;63.90;99881.92;108019;1286;21962;-81
2022/12/15 13:27:56;;;;;;;56.40;46.90;;;;;;;-1.11;63.99;99879.36;108122;1285;23107;-81
2022/12/15 13:30:26;;;;;;;65.30;52.30;;;;;;;-1.06;63.95;99881.60;107930;1286;21945;-81
2022/12/15 13:33:17;;;;;;;60.80;50.60;;;;;;;-1.04;63.90;99883.98;107568;1292;22042;-81
2022/12/15 13:35:46;;;;;;;68.00;56.40;;;;;;;-1.07;63.74;99887.58;107555;1292;22117;-81
2022/12/15 13:38:18;;;;;;;80.10;63.50;;;;;;;-1.08;63.83;99883.30;107464;1292;23045;-82
2022/12/15 13:40:47;;;;;;;82.60;62.30;;;;;;;-1.06;64.01;99879.73;107297;1292;22801;-81
2022/12/15 13:43:30;;;;;;;82.40;57.90;;;;;;;-1.06;63.75;99881.60;107629;1291;22517;-81
2022/12/15 13:46:11;;;;;;;62.30;44.80;;;;;;;-1.18;63.36;99884.13;107626;1291;21988;-82
2022/12/15 13:48:52;;;;;;;70.80;51.30;;;;;;;-1.28;63.53;99886.98;107606;1291;24701;-81
2022/12/15 13:51:41;;;;;;;75.90;52.70;;;;;;;-1.32;63.61;99887.33;108088;1279;21979;-81
2022/12/15 13:54:31;;;;;;;55.70;45.90;;;;;;;-1.37;63.72;99886.45;108347;1279;22042;-81
2022/12/15 13:57:08;;;;;;;46.50;37.50;;;;;;;-1.42;63.83;99886.09;108601;1278;21970;-81
2022/12/15 13:59:59;;;;;;;43.90;36.20;;;;;;;-1.43;63.87;99895.65;108777;1279;21954;-82
2022/12/15 14:02:30;;;;;;;50.70;41.30;;;;;;;-1.48;63.67;99895.30;108763;1280;23730;-79
2022/12/15 14:05:11;;;;;;;54.40;45.10;;;;;;;-1.50;63.67;99892.21;108563;1279;21940;-81
2022/12/15 14:07:55;;;;;;;53.30;42.90;;;;;;;-1.48;63.76;99891.88;108343;1280;22017;-81
2022/12/15 14:10:35;;;;;;;49.00;41.60;;;;;;;-1.46;63.75;99892.73;108276;1280;23103;-81
2022/12/15 14:13:20;;;;;;;49.90;41.30;;;;;;;-1.45;63.73;99894.80;108301;1280;23175;-82
2022/12/15 14:16:20;;;;;;;58.80;49.00;;;;;;;-1.46;63.61;99896.84;108363;1280;21984;-82
2022/12/15 14:19:17;;;;;;;64.20;51.80;;;;;;;-1.49;63.66;99901.62;108362;1280;23444;-81